M I D A S
Marine Information and Data Acquisition System
Tripno 1763 of the Zeeleeuw from 2009-07-13 06:44:58 to 2009-07-13 15:15:57
Back to CruiseResearch ActivitiesStationsMapUnderway DataData graphs

EquipmentUnitsComment
TimeDGPSUTC
LatitudeDGPSDM.mWGS84
LongitudeDGPSDM.mWGS84
HeadingGyrodeg 
SOGDGPSknotsSpeed over ground
COGDGPSdegCourse over ground
DepthEcho soundermeters200 kHz
Missing or incorrect values are displayed as -999
Navigation data collected by the RV Zeeleeuw from 2009-07-13 06:47:44 to 2009-07-13 15:25:07
Time Latitude Longitude Heading SOG COG Depth
2009-07-13 06:48:49 51°13.675 2°55.905 110.5 3.1 291 -999
2009-07-13 06:49:49 51°13.691 2°55.818 98.3 3.3 282 -999
2009-07-13 06:50:48 51°13.694 2°55.75 81.3 2 270 13.7
2009-07-13 06:51:46 51°13.701 2°55.736 43.2 1.1 19 13.6
2009-07-13 06:52:45 51°13.74 2°55.728 333.9 3.9 330 12.4
2009-07-13 06:53:45 51°13.823 2°55.64 329.6 7.6 328 12.1
2009-07-13 06:54:44 51°13.948 2°55.536 337.2 9.1 335 12
2009-07-13 06:55:45 51°14.09 2°55.432 338.1 9.4 335 11.6
2009-07-13 06:56:45 51°14.226 2°55.308 325.6 9.4 321 11.9
2009-07-13 06:57:45 51°14.332 2°55.119 311.5 9.9 309 11.6
2009-07-13 06:58:45 51°14.441 2°54.912 313.9 10.6 313 11.3
2009-07-13 06:59:44 51°14.585 2°54.749 334 11.1 329 10.8
2009-07-13 07:00:45 51°14.748 2°54.588 330.8 11.6 327 10.5
2009-07-13 07:01:45 51°14.913 2°54.425 330.6 11.6 328 9.9
2009-07-13 07:02:45 51°15.076 2°54.267 330 11.5 328 9.8
2009-07-13 07:03:45 51°15.237 2°54.105 332.4 11.4 330 11.5
2009-07-13 07:04:45 51°15.399 2°53.948 331.1 11.4 328 11.9
2009-07-13 07:05:45 51°15.56 2°53.789 332.2 11.4 328 12.2
2009-07-13 07:06:45 51°15.724 2°53.624 331.7 11.7 329 12.2
2009-07-13 07:07:45 51°15.893 2°53.461 331.8 11.9 329 12.1
2009-07-13 07:08:45 51°16.062 2°53.297 331.5 12 329 12.5
2009-07-13 07:09:45 51°16.237 2°53.143 333.4 12 330 12.7
2009-07-13 07:10:45 51°16.415 2°53 337.8 12 336 12.7
2009-07-13 07:11:45 51°16.596 2°52.87 337.6 12 335 12.3
2009-07-13 07:12:45 51°16.779 2°52.746 339 11.8 337 10.2
2009-07-13 07:13:45 51°16.963 2°52.631 344.5 11.9 343 10.8
2009-07-13 07:14:45 51°17.155 2°52.562 351.4 11.7 350 10.5
2009-07-13 07:15:45 51°17.347 2°52.509 354.3 11.8 351 10.7
2009-07-13 07:16:45 51°17.541 2°52.459 354.8 11.8 352 10.8
2009-07-13 07:17:45 51°17.736 2°52.418 356.2 11.8 352 11.1
2009-07-13 07:18:45 51°17.932 2°52.379 358.5 11.8 353 11
2009-07-13 07:19:45 51°18.129 2°52.367 2.3 11.8 356 11.4
2009-07-13 07:20:45 51°18.325 2°52.358 1.5 11.9 -999 11.6
2009-07-13 07:21:45 51°18.521 2°52.368 13.2 11.7 11 11.7
2009-07-13 07:22:45 51°18.709 2°52.453 21.7 11.8 18 12.1
2009-07-13 07:23:45 51°18.897 2°52.552 22.9 12 18 12.9
2009-07-13 07:24:45 51°19.086 2°52.648 22.1 11.9 15 13.5
2009-07-13 07:25:45 51°19.275 2°52.74 21.2 11.9 14 13.9
2009-07-13 07:26:45 51°19.465 2°52.828 18.5 11.8 13 15.1
2009-07-13 07:27:45 51°19.653 2°52.914 21.1 11.8 17 15.1
2009-07-13 07:28:45 51°19.841 2°52.998 21.9 11.7 15 15.8
2009-07-13 07:29:45 51°20.028 2°53.089 20.6 11.8 18 16.4
2009-07-13 07:30:45 51°20.215 2°53.186 21 11.8 23 16.6
2009-07-13 07:31:45 51°20.402 2°53.282 21.1 11.8 17 16.7
2009-07-13 07:32:45 51°20.587 2°53.38 21.3 11.7 17 16.8
2009-07-13 07:33:45 51°20.772 2°53.48 21.1 11.7 16 16.6
2009-07-13 07:34:45 51°20.956 2°53.576 20 11.8 16 16.7
2009-07-13 07:35:45 51°21.14 2°53.672 20.4 11.6 19 16.5
2009-07-13 07:36:45 51°21.323 2°53.766 22.1 11.6 20 16.9
2009-07-13 07:37:45 51°21.508 2°53.859 21.8 11.7 20 17
2009-07-13 07:38:45 51°21.689 2°53.969 27.7 11.6 23 17
2009-07-13 07:39:45 51°21.865 2°54.102 30.4 11.6 27 17.8
2009-07-13 07:40:45 51°22.041 2°54.232 30.4 11.6 29 19
2009-07-13 07:41:45 51°22.215 2°54.372 31.1 11.7 31 18.5
2009-07-13 07:42:45 51°22.38 2°54.533 37.7 11.6 31 18.9
2009-07-13 07:43:45 51°22.538 2°54.711 37.1 11.6 33 19.3
2009-07-13 07:44:45 51°22.702 2°54.878 35.9 11.5 35 20.3
2009-07-13 07:45:45 51°22.868 2°55.038 34.4 11.9 29 19.5
2009-07-13 07:46:45 51°23.036 2°55.2 36.1 11.9 35 19.3
2009-07-13 07:47:45 51°23.203 2°55.364 35.8 12 31 19.2
2009-07-13 07:48:45 51°23.369 2°55.53 35.2 11.8 29 18.8
2009-07-13 07:49:45 51°23.537 2°55.692 35.5 11.9 34 18.3
2009-07-13 07:50:45 51°23.705 2°55.853 32.6 11.6 34 16
2009-07-13 07:51:45 51°23.873 2°56.013 33.9 11.8 28 16.6
2009-07-13 07:52:45 51°24.043 2°56.176 35.9 11.8 33 18.3
2009-07-13 07:53:45 51°24.212 2°56.337 36.3 12 29 15.9
2009-07-13 07:54:45 51°24.381 2°56.501 34.9 11.9 29 20.6
2009-07-13 07:55:45 51°24.547 2°56.665 36.1 11.7 30 20.9
2009-07-13 07:56:45 51°24.715 2°56.83 36.5 11.8 36 21.5
2009-07-13 07:57:45 51°24.882 2°56.989 36.5 11.7 29 22.7
2009-07-13 07:58:45 51°25.049 2°57.147 34.3 11.8 24 23.7
2009-07-13 07:59:45 51°25.214 2°57.307 35.7 11.7 29 24.2
2009-07-13 08:00:45 51°25.381 2°57.47 37.4 12 39 25.1
2009-07-13 08:01:45 51°25.548 2°57.626 35.3 11.6 32 24.4
2009-07-13 08:02:45 51°25.716 2°57.783 35.7 11.6 35 24.3
2009-07-13 08:03:45 51°25.881 2°57.939 35.5 11.6 25 23.4
2009-07-13 08:04:45 51°26.046 2°58.093 34.4 11.6 26 22.5
2009-07-13 08:05:45 51°26.206 2°58.237 34.7 8.9 28 21.7
2009-07-13 08:06:45 51°26.3 2°58.318 36.7 5 29 20.6
2009-07-13 08:07:45 51°26.364 2°58.37 33.4 3.9 25 19.3
2009-07-13 08:08:45 51°26.419 2°58.409 34.1 3.6 25 19.8
2009-07-13 08:09:45 51°26.471 2°58.445 33.5 3.4 24 20.1
2009-07-13 08:10:45 51°26.522 2°58.479 34.2 3.3 21 20.2
2009-07-13 08:11:45 51°26.571 2°58.514 36.1 3.2 24 19.6
2009-07-13 08:12:45 51°26.621 2°58.549 34.6 3.2 22 19.3
2009-07-13 08:13:45 51°26.67 2°58.583 36.6 3.2 25 19.5
2009-07-13 08:14:45 51°26.718 2°58.616 36.3 3.2 23 19.1
2009-07-13 08:15:45 51°26.766 2°58.65 35.5 3.2 22 17.1
2009-07-13 08:16:45 51°26.815 2°58.684 35.9 3.2 24 18.1
2009-07-13 08:17:46 51°26.865 2°58.72 36.2 3.3 25 17.3
2009-07-13 08:18:45 51°26.913 2°58.755 35.8 3.3 25 17.9
2009-07-13 08:19:45 51°26.963 2°58.783 20 3.3 10 18.3
2009-07-13 08:20:45 51°27.01 2°58.784 1.5 2.5 354 18.7
2009-07-13 08:21:45 51°27.048 2°58.776 351.9 2.2 349 18.1
2009-07-13 08:22:45 51°27.08 2°58.765 341.1 1.8 343 17.9
2009-07-13 08:23:45 51°27.107 2°58.753 338.1 1.7 343 17.7
2009-07-13 08:24:45 51°27.13 2°58.741 331.6 1.3 344 18.1
2009-07-13 08:25:45 51°27.149 2°58.734 326.3 1 347 17.9
2009-07-13 08:26:45 51°27.166 2°58.731 325.5 1 2 18.2
2009-07-13 08:27:45 51°27.181 2°58.731 326.7 0.8 352 17.8
2009-07-13 08:28:45 51°27.194 2°58.733 328.9 0.8 3 18.3
2009-07-13 08:29:45 51°27.207 2°58.736 332.2 0.7 11 18.3
2009-07-13 08:30:45 51°27.218 2°58.74 337.6 0.7 1 17.6
2009-07-13 08:31:45 51°27.228 2°58.742 341.2 0.6 5 15.5
2009-07-13 08:32:45 51°27.235 2°58.745 345.4 0.5 7 15.8
2009-07-13 08:33:45 51°27.243 2°58.747 347.2 0.5 14 16.2
2009-07-13 08:34:45 51°27.249 2°58.749 347.6 0.5 22 16.9
2009-07-13 08:35:45 51°27.257 2°58.752 349.9 0.5 20 16.5
2009-07-13 08:36:45 51°27.265 2°58.752 345.7 0.5 352 15.5
2009-07-13 08:37:46 51°27.273 2°58.752 342.9 0.4 10 16
2009-07-13 08:38:45 51°27.295 2°58.746 348.4 3 345 16.2
2009-07-13 08:39:45 51°27.369 2°58.761 37.4 5.2 31 15.6
2009-07-13 08:40:45 51°27.401 2°58.881 97.3 5.1 94 16.5
2009-07-13 08:41:45 51°27.399 2°59.008 74.2 5.2 66 18.4
2009-07-13 08:42:45 51°27.463 2°59.116 53 5.9 48 19.5
2009-07-13 08:43:45 51°27.501 2°59.258 81 6 74 18.3
2009-07-13 08:44:45 51°27.5 2°59.404 117.9 4.9 112 20.1
2009-07-13 08:45:45 51°27.482 2°59.529 101.3 4.9 95 20.2
2009-07-13 08:46:45 51°27.466 2°59.653 111.7 4.7 109 19.5
2009-07-13 08:47:45 51°27.438 2°59.768 111.2 4.6 108 19.1
2009-07-13 08:48:45 51°27.425 2°59.893 99 5 98 20.8
2009-07-13 08:49:46 51°27.405 3°0.007 111.2 3.4 109 20.6
2009-07-13 08:50:45 51°27.391 3°0.074 110.7 2.1 109 21.2
2009-07-13 08:51:45 51°27.384 3°0.104 128.6 0.5 114 21.5
2009-07-13 08:52:45 51°27.386 3°0.103 144.8 1 325 22
2009-07-13 08:53:47 51°27.414 3°0.063 129.2 3 311 21.3
2009-07-13 08:54:46 51°27.436 3°0.012 114.8 1.8 303 20.8
2009-07-13 08:55:45 51°27.449 2°59.978 106.9 1.2 302 20.4
2009-07-13 08:56:45 51°27.458 2°59.954 100.4 1 305 20.4
2009-07-13 08:57:45 51°27.467 2°59.936 99.4 0.9 315 20.1
2009-07-13 08:58:46 51°27.476 2°59.919 101.7 0.7 311 19.5
2009-07-13 08:59:45 51°27.483 2°59.936 81.6 2 75 20
2009-07-13 09:00:45 51°27.494 3°0.032 84.3 5 84 20.9
2009-07-13 09:01:45 51°27.516 3°0.18 70.6 5.9 67 21.3
2009-07-13 09:02:45 51°27.585 3°0.281 50.8 5.4 47 20.9
2009-07-13 09:03:46 51°27.634 3°0.387 49.4 4.6 44 21.1
2009-07-13 09:04:45 51°27.672 3°0.478 90.2 3.7 95 21
2009-07-13 09:05:45 51°27.634 3°0.534 160.4 3.7 173 21.5
2009-07-13 09:06:45 51°27.567 3°0.478 214.1 5.6 217 22.1
2009-07-13 09:07:45 51°27.485 3°0.369 221.1 6.6 223 22.7
2009-07-13 09:08:45 51°27.418 3°0.227 233.5 6.8 236 22.7
2009-07-13 09:09:46 51°27.353 3°0.068 236.9 7.1 238 22.4
2009-07-13 09:10:45 51°27.287 2°59.916 225.6 7 228 22.3
2009-07-13 09:11:45 51°27.196 2°59.837 175.4 5.6 177 21.5
2009-07-13 09:12:45 51°27.112 2°59.873 138.1 3.8 142 23.3
2009-07-13 09:13:45 51°27.097 2°59.937 79.7 2.1 81 23.2
2009-07-13 09:14:46 51°27.12 2°59.974 38.4 2.1 31 23.6
2009-07-13 09:15:45 51°27.154 3°0.004 36.2 2.5 27 22.6
2009-07-13 09:16:45 51°27.196 3°0.03 27 2.8 18 22.3
2009-07-13 09:17:45 51°27.242 3°0.051 25.3 2.9 15 23.2
2009-07-13 09:18:45 51°27.286 3°0.078 33.4 2.8 24 22
2009-07-13 09:19:45 51°27.329 3°0.111 35.2 2.8 26 22.5
2009-07-13 09:20:45 51°27.371 3°0.145 33.4 3 26 21.8
2009-07-13 09:21:46 51°27.416 3°0.194 46.1 3.3 41 22.7
2009-07-13 09:22:45 51°27.456 3°0.261 52.2 3.7 47 21.7
2009-07-13 09:23:45 51°27.5 3°0.332 49.4 3.7 45 22.5
2009-07-13 09:24:45 51°27.544 3°0.401 48.7 3.7 43 21.5
2009-07-13 09:25:46 51°27.59 3°0.469 47.3 3.7 41 22
2009-07-13 09:26:45 51°27.636 3°0.534 47.3 3.8 41 21.8
2009-07-13 09:27:45 51°27.689 3°0.586 28 3.7 15 22.4
2009-07-13 09:28:45 51°27.748 3°0.575 346.8 3.6 334 22.2
2009-07-13 09:29:45 51°27.792 3°0.506 312.2 3.8 306 21.7
2009-07-13 09:30:46 51°27.813 3°0.408 276.8 3.8 275 20.8
2009-07-13 09:31:45 51°27.796 3°0.316 234.4 3.8 238 20.5
2009-07-13 09:32:45 51°27.747 3°0.254 193.8 3.8 203 19.9
2009-07-13 09:33:45 51°27.685 3°0.227 189.6 3.9 195 19.9
2009-07-13 09:34:46 51°27.622 3°0.186 204.4 4 209 20.6
2009-07-13 09:35:45 51°27.569 3°0.125 218.1 3.9 220 20.4
2009-07-13 09:36:45 51°27.521 3°0.05 222.6 4 225 20.3
2009-07-13 09:37:46 51°27.47 2°59.981 213.5 4 217 20.3
2009-07-13 09:38:45 51°27.418 2°59.923 212.6 3.8 214 20.7
2009-07-13 09:39:45 51°27.37 2°59.859 220.5 3.8 221 20.5
2009-07-13 09:40:45 51°27.323 2°59.788 221.4 3.8 222 21.1
2009-07-13 09:41:46 51°27.274 2°59.718 220.2 3.9 223 20.5
2009-07-13 09:42:45 51°27.225 2°59.649 219.3 3.8 220 20.4
2009-07-13 09:43:45 51°27.176 2°59.592 209.3 3.7 212 20.5
2009-07-13 09:44:45 51°27.122 2°59.577 157.2 3.2 166 20.4
2009-07-13 09:45:45 51°27.088 2°59.637 90 3 97 20.9
2009-07-13 09:46:45 51°27.113 2°59.707 44.7 3.5 40 21.9
2009-07-13 09:47:45 51°27.162 2°59.772 42.5 4 39 22.3
2009-07-13 09:48:46 51°27.213 2°59.848 50.9 4.2 49 21.5
2009-07-13 09:49:45 51°27.256 2°59.935 54.2 4.2 53 22.6
2009-07-13 09:50:46 51°27.307 3°0.018 46.6 4.3 43 21.7
2009-07-13 09:51:45 51°27.352 3°0.101 51.3 4.1 49 21
2009-07-13 09:52:45 51°27.399 3°0.182 49.1 4.2 46 22.4
2009-07-13 09:53:46 51°27.448 3°0.265 49.5 4.2 47 21.8
2009-07-13 09:54:46 51°27.492 3°0.352 55 4.2 53 22.5
2009-07-13 09:55:46 51°27.532 3°0.441 55.2 4.1 55 22
2009-07-13 09:56:46 51°27.572 3°0.529 54.7 4.1 53 22.6
2009-07-13 09:57:46 51°27.614 3°0.615 50.1 4 47 22.3
2009-07-13 09:58:45 51°27.671 3°0.638 1.8 3.7 346 22.3
2009-07-13 09:59:46 51°27.719 3°0.566 313 4.4 297 21.8
2009-07-13 10:00:45 51°27.728 3°0.45 268.6 4.7 260 21
2009-07-13 10:01:46 51°27.685 3°0.341 218.9 4.9 219 20.4
2009-07-13 10:02:46 51°27.612 3°0.295 182.3 4.4 191 21
2009-07-13 10:03:46 51°27.547 3°0.271 190 3.8 198 21
2009-07-13 10:04:46 51°27.493 3°0.228 211.2 3.6 214 21.5
2009-07-13 10:05:45 51°27.45 3°0.165 230.4 3.6 228 21.8
2009-07-13 10:06:46 51°27.413 3°0.094 236 3.4 231 21.3
2009-07-13 10:07:45 51°27.378 3°0.023 240.7 3.5 235 21.9
2009-07-13 10:08:46 51°27.342 2°59.946 234 3.5 227 21.4
2009-07-13 10:09:46 51°27.3 2°59.878 222.9 3.7 224 22
2009-07-13 10:10:46 51°27.258 2°59.808 231.5 3.7 227 21.9
2009-07-13 10:11:46 51°27.219 2°59.733 234.3 3.7 231 20.8
2009-07-13 10:12:46 51°27.179 2°59.655 233.1 3.9 231 21.2
2009-07-13 10:13:46 51°27.137 2°59.579 233 3.8 228 20.7
2009-07-13 10:14:46 51°27.091 2°59.515 205 3.5 210 19.8
2009-07-13 10:15:46 51°27.04 2°59.496 163.1 3.2 179 21
2009-07-13 10:16:46 51°26.99 2°59.549 106.6 3.8 121 21.7
2009-07-13 10:17:46 51°26.998 2°59.638 58.7 3.7 62 21.9
2009-07-13 10:18:46 51°27.047 2°59.706 33.5 4.1 28 21.6
2009-07-13 10:19:46 51°27.104 2°59.761 42.2 3.8 37 22.4
2009-07-13 10:20:46 51°27.155 2°59.815 33.3 3.6 28 22.8
2009-07-13 10:21:46 51°27.204 2°59.868 43.6 3.5 42 21.8
2009-07-13 10:22:46 51°27.25 2°59.93 42.1 3.6 39 22.4
2009-07-13 10:23:46 51°27.292 2°59.999 45.1 3.6 45 22
2009-07-13 10:24:46 51°27.338 3°0.064 46.2 3.6 45 22.3
2009-07-13 10:25:46 51°27.377 3°0.138 50.2 3.6 50 21.8
2009-07-13 10:26:46 51°27.417 3°0.212 47.8 3.7 47 22.6
2009-07-13 10:27:46 51°27.457 3°0.285 47.8 3.6 49 22.2
2009-07-13 10:28:46 51°27.498 3°0.357 46.9 3.6 48 22.5
2009-07-13 10:29:46 51°27.534 3°0.433 58 3.6 63 21.9
2009-07-13 10:30:46 51°27.553 3°0.527 67.2 3.8 75 22.5
2009-07-13 10:31:46 51°27.569 3°0.623 65.5 3.7 74 22.5
2009-07-13 10:32:46 51°27.588 3°0.716 64.4 3.7 72 23.1
2009-07-13 10:33:46 51°27.607 3°0.81 64 3.7 72 23.2
2009-07-13 10:34:46 51°27.628 3°0.903 63.8 3.7 70 22.9
2009-07-13 10:35:46 51°27.649 3°0.993 63.6 3.6 68 22.8
2009-07-13 10:36:46 51°27.689 3°1.032 13.5 3.1 353 23
2009-07-13 10:37:46 51°27.733 3°0.967 323.7 4.2 299 22.7
2009-07-13 10:38:46 51°27.75 3°0.848 289 4.9 274 22.8
2009-07-13 10:39:46 51°27.74 3°0.707 266.1 5.6 255 22.7
2009-07-13 10:40:46 51°27.702 3°0.564 248.9 6 242 22.1
2009-07-13 10:41:45 51°27.648 3°0.427 240.4 6.3 233 20.8
2009-07-13 10:42:46 51°27.58 3°0.294 229.1 6.3 226 21.1
2009-07-13 10:43:46 51°27.503 3°0.174 225.6 6.5 222 21.2
2009-07-13 10:44:46 51°27.421 3°0.062 221.6 6.5 218 21.2
2009-07-13 10:45:46 51°27.339 2°59.951 224.9 6.4 222 21
2009-07-13 10:46:46 51°27.258 2°59.838 224.4 6.5 222 21.7
2009-07-13 10:47:46 51°27.181 2°59.718 229.3 6.5 227 21.2
2009-07-13 10:48:45 51°27.124 2°59.582 251.5 6.1 242 21.1
2009-07-13 10:49:45 51°27.078 2°59.441 239.5 5.9 235 20.7
2009-07-13 10:50:46 51°26.998 2°59.365 183.8 5.3 193 20
2009-07-13 10:51:45 51°26.925 2°59.391 124.4 4.1 144 20.5
2009-07-13 10:52:45 51°26.901 2°59.464 68.5 2.6 84 21.6
2009-07-13 10:53:45 51°26.93 2°59.507 32.4 2.6 28 21.6
2009-07-13 10:54:45 51°26.971 2°59.548 39.6 3.1 38 21.9
2009-07-13 10:55:45 51°27.014 2°59.601 40.5 3.3 38 20.8
2009-07-13 10:56:45 51°27.055 2°59.658 43.2 3.2 44 21.5
2009-07-13 10:57:45 51°27.093 2°59.721 43.6 3.2 44 22.2
2009-07-13 10:58:46 51°27.133 2°59.782 40.2 3.3 41 22.8
2009-07-13 10:59:46 51°27.176 2°59.837 40.8 3.3 39 21.6
2009-07-13 11:00:45 51°27.217 2°59.892 41.7 3.3 39 22.1
2009-07-13 11:01:46 51°27.26 2°59.949 41.3 3.2 40 23
2009-07-13 11:02:46 51°27.3 3°0.005 44.5 3.2 43 22
2009-07-13 11:03:46 51°27.338 3°0.065 45.1 3.3 46 22.7
2009-07-13 11:04:45 51°27.376 3°0.123 44.8 3.2 43 21.8
2009-07-13 11:05:46 51°27.423 3°0.139 2.7 3.1 340 22.4
2009-07-13 11:06:46 51°27.464 3°0.071 327.9 4.1 304 21.7
2009-07-13 11:07:46 51°27.48 2°59.922 262.1 7.5 250 19.6
2009-07-13 11:08:46 51°27.39 2°59.733 232.1 9.3 227 20.3
2009-07-13 11:09:45 51°27.292 2°59.702 143.1 5.2 160 20.8
2009-07-13 11:10:45 51°27.238 2°59.804 83.6 4.1 97 21.6
2009-07-13 11:11:46 51°27.271 2°59.851 33.7 2.8 33 22.1
2009-07-13 11:12:45 51°27.299 2°59.91 53.6 3.2 58 20.9
2009-07-13 11:13:45 51°27.322 2°59.978 51.5 2.2 55 21.8
2009-07-13 11:14:46 51°27.341 3°0.016 46.4 1.5 49 22
2009-07-13 11:15:45 51°27.357 3°0.041 40.7 1.4 46 22.4
2009-07-13 11:16:46 51°27.371 3°0.051 28.7 0.6 337 22
2009-07-13 11:17:45 51°27.355 3°0.028 17.7 2.5 207 22.3
2009-07-13 11:18:46 51°27.347 3°0.021 38.2 1.1 43 22.2
2009-07-13 11:19:46 51°27.364 3°0.053 47.6 1.7 48 22.5
2009-07-13 11:20:46 51°27.374 3°0.073 46.9 0.3 160 21.8
2009-07-13 11:21:46 51°27.365 3°0.068 57.6 0.9 215 21.2
2009-07-13 11:22:46 51°27.346 3°0.044 67.6 1.4 215 22.4
2009-07-13 11:23:45 51°27.327 3°0.021 74.4 1.5 219 22
2009-07-13 11:24:45 51°27.312 3°0.01 59.7 0.5 186 22.1
2009-07-13 11:25:46 51°27.311 3°0.005 30 0.4 326 21.9
2009-07-13 11:26:45 51°27.32 3°0 29.4 0.7 353 22
2009-07-13 11:27:45 51°27.331 3°0.004 33.6 0.7 8 21.9
2009-07-13 11:28:45 51°27.338 3°0.005 40.5 0.1 5 22
2009-07-13 11:29:46 51°27.337 3°0.004 39.3 0.2 254 22.1
2009-07-13 11:30:46 51°27.334 3°0.002 45.5 0.2 151 21.8
2009-07-13 11:31:45 51°27.337 3°0.002 34.7 0.4 17 21.9
2009-07-13 11:32:46 51°27.345 3°0.011 40.9 0.8 36 22.1
2009-07-13 11:33:46 51°27.354 3°0.026 40.2 0.9 40 22.7
2009-07-13 11:34:46 51°27.365 3°0.045 46.5 1.1 50 22.4
2009-07-13 11:35:45 51°27.378 3°0.058 32.1 0.8 5 21.2
2009-07-13 11:36:45 51°27.383 3°0.053 28.6 0.3 276 21.8
2009-07-13 11:37:46 51°27.38 3°0.039 25.8 0.6 258 21.3
2009-07-13 11:38:45 51°27.379 3°0.026 32.1 0.3 294 22.3
2009-07-13 11:39:46 51°27.378 3°0.024 42.2 -999 127 22.3
2009-07-13 11:40:45 51°27.38 3°0.021 32.7 0.3 324 22.1
2009-07-13 11:41:46 51°27.384 3°0.01 21 0.7 274 22.1
2009-07-13 11:42:46 51°27.381 2°59.988 10.5 1 252 22
2009-07-13 11:43:46 51°27.374 2°59.962 1.5 1.1 241 21.7
2009-07-13 11:44:46 51°27.361 2°59.935 354.7 1.2 242 21.4
2009-07-13 11:45:45 51°27.365 2°59.881 307.2 3.4 273 21
2009-07-13 11:46:46 51°27.333 2°59.767 228.2 4.7 227 21.3
2009-07-13 11:47:46 51°27.279 2°59.713 193.3 3.3 207 21.4
2009-07-13 11:48:46 51°27.234 2°59.683 184.4 2.8 203 21.3
2009-07-13 11:49:46 51°27.195 2°59.657 187.8 2.4 204 21.3
2009-07-13 11:50:45 51°27.161 2°59.632 192.7 2.2 206 21.6
2009-07-13 11:51:46 51°27.13 2°59.607 196.9 2 206 21.6
2009-07-13 11:52:46 51°27.101 2°59.583 198.8 1.9 206 20.9
2009-07-13 11:53:46 51°27.075 2°59.561 194.5 1.8 210 20.6
2009-07-13 11:54:45 51°27.05 2°59.54 188 1.7 207 19.8
2009-07-13 11:55:45 51°27.027 2°59.521 175.7 1.5 207 22.1
2009-07-13 11:56:46 51°27.004 2°59.501 167.1 1.6 211 21.7
2009-07-13 11:57:46 51°26.982 2°59.481 159.8 1.5 209 21.9
2009-07-13 11:58:46 51°26.96 2°59.462 155.9 1.6 210 21.7
2009-07-13 11:59:45 51°26.939 2°59.442 152 1.6 211 21.7
2009-07-13 12:00:45 51°26.918 2°59.422 149.2 1.5 211 21.3
2009-07-13 12:01:46 51°26.896 2°59.4 146 1.5 210 22.6
2009-07-13 12:02:45 51°26.875 2°59.38 144.2 1.5 210 22.4
2009-07-13 12:03:46 51°26.854 2°59.361 145.2 1.4 210 22.6
2009-07-13 12:04:46 51°26.831 2°59.344 142.5 1.7 192 22.8
2009-07-13 12:05:46 51°26.801 2°59.334 137.3 1.7 193 23.2
2009-07-13 12:06:46 51°26.772 2°59.322 145.3 1.7 198 23.2
2009-07-13 12:07:46 51°26.745 2°59.307 149.6 2 189 22.9
2009-07-13 12:08:45 51°26.711 2°59.329 93.6 2.2 126 23.4
2009-07-13 12:09:46 51°26.729 2°59.373 32.9 2.9 29 23.5
2009-07-13 12:10:46 51°26.788 2°59.432 36.4 4.9 35 23.4
2009-07-13 12:11:45 51°26.861 2°59.505 33.9 5.4 30 23
2009-07-13 12:12:46 51°26.941 2°59.575 34 5.4 30 22.7
2009-07-13 12:13:46 51°27.029 2°59.667 38.6 7.1 37 21.4
2009-07-13 12:14:46 51°27.127 2°59.784 40 7.4 38 23.1
2009-07-13 12:15:45 51°27.225 2°59.9 38.8 7.4 36 22.9
2009-07-13 12:16:46 51°27.329 3°0.013 37.7 7.5 32 22.2
2009-07-13 12:17:45 51°27.403 3°0.082 41.3 3.1 35 22.1
2009-07-13 12:18:46 51°27.423 3°0.088 23.3 0.7 305 21.9
2009-07-13 12:19:46 51°27.419 3°0.063 13.6 1.5 231 21.5
2009-07-13 12:20:47 51°27.39 3°0.027 27.3 2.8 216 -999
2009-07-13 12:21:49 51°27.356 2°59.982 38.7 2.3 219 22.4
2009-07-13 12:22:47 51°27.33 2°59.947 41.3 2 217 22.1
2009-07-13 12:23:46 51°27.31 2°59.92 34.6 1.5 218 21.6
2009-07-13 12:24:45 51°27.292 2°59.894 30.8 1.5 217 23.1
2009-07-13 12:25:46 51°27.275 2°59.868 24.5 1.4 223 22.8
2009-07-13 12:26:46 51°27.259 2°59.844 19 1.3 223 22.2
2009-07-13 12:27:46 51°27.242 2°59.817 14.1 1.5 223 22.5
2009-07-13 12:28:45 51°27.225 2°59.792 12.2 1.4 222 22.3
2009-07-13 12:29:45 51°27.208 2°59.767 8.8 1.4 220 22.4
2009-07-13 12:30:45 51°27.189 2°59.742 6.8 1.4 220 21.8
2009-07-13 12:31:46 51°27.172 2°59.717 5.9 1.5 223 22.6
2009-07-13 12:32:46 51°27.153 2°59.693 6.7 1.4 218 22.7
2009-07-13 12:33:46 51°27.135 2°59.669 6.9 1.5 216 22.3
2009-07-13 12:34:45 51°27.116 2°59.646 8.7 1.5 217 21.9
2009-07-13 12:35:46 51°27.095 2°59.623 9.5 1.5 215 21.8
2009-07-13 12:36:45 51°27.075 2°59.599 12.3 1.5 216 21.9
2009-07-13 12:37:45 51°27.054 2°59.576 14.4 1.6 214 21.1
2009-07-13 12:38:46 51°27.033 2°59.552 13.9 1.5 217 20
2009-07-13 12:39:46 51°27.013 2°59.53 11.3 1.4 214 22.6
2009-07-13 12:40:46 51°26.993 2°59.507 9.8 1.4 217 22
2009-07-13 12:41:46 51°26.988 2°59.487 10.2 0.9 314 22.2
2009-07-13 12:42:45 51°27.02 2°59.485 25 2.8 13 22.1
2009-07-13 12:43:46 51°27.068 2°59.525 43.6 3.4 40 20.9
2009-07-13 12:44:46 51°27.107 2°59.595 46.8 3.6 47 21.6
2009-07-13 12:45:46 51°27.151 2°59.665 47.5 3.8 47 22.1
2009-07-13 12:46:45 51°27.192 2°59.739 51.3 3.8 53 22
2009-07-13 12:47:46 51°27.233 2°59.817 49.6 3.8 48 22.3
2009-07-13 12:48:46 51°27.275 2°59.89 49.1 3.8 49 23.2
2009-07-13 12:49:46 51°27.316 2°59.966 51.6 3.6 50 22.4
2009-07-13 12:50:46 51°27.354 3°0.034 50.6 3.4 50 23.1
2009-07-13 12:51:45 51°27.387 3°0.103 52.2 3.3 51 22.3
2009-07-13 12:52:46 51°27.424 3°0.168 49.1 3.3 45 22.8
2009-07-13 12:53:46 51°27.459 3°0.234 58.9 3 63 23
2009-07-13 12:54:46 51°27.471 3°0.311 68.5 3 75 22.7
2009-07-13 12:55:45 51°27.49 3°0.381 56.9 3 58 23.3
2009-07-13 12:56:46 51°27.523 3°0.446 51.9 3.2 47 23.1
2009-07-13 12:57:45 51°27.555 3°0.514 55.7 3.3 56 23.2
2009-07-13 12:58:46 51°27.59 3°0.582 45 3.1 38 22.7
2009-07-13 12:59:46 51°27.641 3°0.587 359 3.5 336 23.2
2009-07-13 13:00:45 51°27.677 3°0.503 305.5 4.5 284 22.3
2009-07-13 13:01:45 51°27.662 3°0.379 247.1 5.1 238 21.9
2009-07-13 13:02:45 51°27.601 3°0.267 224.2 6 225 21.7
2009-07-13 13:03:46 51°27.526 3°0.152 222.8 6.2 221 22.2
2009-07-13 13:04:45 51°27.445 3°0.053 211.7 6.3 214 21.9
2009-07-13 13:05:46 51°27.36 2°59.951 220.1 6.3 221 22.3
2009-07-13 13:06:46 51°27.298 2°59.819 246.6 6.1 240 22.6
2009-07-13 13:07:46 51°27.245 2°59.677 242 6.3 236 21.5
2009-07-13 13:08:45 51°27.184 2°59.546 225.7 6.1 222 21.1
2009-07-13 13:09:46 51°27.099 2°59.494 170.4 5.1 183 21.1
2009-07-13 13:10:46 51°27.031 2°59.53 119.8 3.8 140 22.4
2009-07-13 13:11:46 51°27.015 2°59.602 69.2 2.6 80 21.7
2009-07-13 13:12:45 51°27.041 2°59.659 42.9 3 40 22.6
2009-07-13 13:13:46 51°27.091 2°59.71 37.2 3.7 31 22.8
2009-07-13 13:14:46 51°27.146 2°59.767 39.5 4 34 23.4
2009-07-13 13:15:46 51°27.201 2°59.831 41.4 4.1 37 23.2
2009-07-13 13:16:46 51°27.256 2°59.896 40.9 4.2 35 23.4
2009-07-13 13:17:45 51°27.305 2°59.961 44.4 3.7 41 22.5
2009-07-13 13:18:46 51°27.351 3°0.025 45 3.6 43 23.1
2009-07-13 13:19:46 51°27.39 3°0.098 56.1 3.7 56 22.3
2009-07-13 13:20:45 51°27.423 3°0.183 57.3 3.8 60 23.4
2009-07-13 13:21:45 51°27.456 3°0.272 57.6 3.9 60 23.3
2009-07-13 13:22:45 51°27.491 3°0.359 57.2 3.9 58 23.7
2009-07-13 13:23:46 51°27.519 3°0.455 69 3.9 74 23.7
2009-07-13 13:24:45 51°27.535 3°0.553 66.4 3.6 67 23.9
2009-07-13 13:25:46 51°27.583 3°0.594 17.4 3.5 1 22.7
2009-07-13 13:26:46 51°27.641 3°0.551 335.7 4.2 317 23
2009-07-13 13:27:46 51°27.669 3°0.442 288 4.9 273 22
2009-07-13 13:28:45 51°27.641 3°0.313 239.2 5.4 234 22.2
2009-07-13 13:29:46 51°27.565 3°0.234 199.4 5.7 207 21.7
2009-07-13 13:30:45 51°27.485 3°0.148 221.3 5.9 222 22.5
2009-07-13 13:31:46 51°27.416 3°0.036 229.1 5.6 227 22.1
2009-07-13 13:32:46 51°27.362 2°59.938 234.4 4.7 231 22.3
2009-07-13 13:33:46 51°27.314 2°59.842 236.7 4.6 231 22.8
2009-07-13 13:34:45 51°27.27 2°59.75 241.2 4.3 234 22.3
2009-07-13 13:35:45 51°27.227 2°59.655 231.2 4.6 225 21.7
2009-07-13 13:36:46 51°27.155 2°59.641 134.8 4.4 145 22.7
2009-07-13 13:37:45 51°27.161 2°59.744 52.6 5.3 49 23.5
2009-07-13 13:38:46 51°27.247 2°59.848 35.8 6 36 23
2009-07-13 13:39:45 51°27.31 2°59.931 42.3 4.1 40 22.4
2009-07-13 13:40:45 51°27.348 2°59.988 43.7 2.4 43 23.1
2009-07-13 13:41:46 51°27.372 3°0.023 42.9 1.6 40 23.3
2009-07-13 13:42:46 51°27.392 3°0.051 40.7 1.9 42 22.9
2009-07-13 13:43:46 51°27.412 3°0.073 38.1 0.7 31 22.5
2009-07-13 13:44:45 51°27.415 3°0.079 50.8 0.3 88 22.6
2009-07-13 13:45:46 51°27.413 3°0.083 47.8 0.2 163 22.7
2009-07-13 13:46:46 51°27.41 3°0.082 52.1 0.3 186 22.7
2009-07-13 13:47:46 51°27.403 3°0.081 55.9 0.4 193 23.1
2009-07-13 13:48:46 51°27.395 3°0.078 60.1 0.5 201 22.5
2009-07-13 13:49:45 51°27.386 3°0.074 65.4 0.6 195 22.9
2009-07-13 13:50:45 51°27.376 3°0.069 71.2 0.7 193 22.9
2009-07-13 13:51:46 51°27.366 3°0.065 79.2 0.6 177 23.1
2009-07-13 13:52:46 51°27.347 3°0.095 125.9 3 145 24.1
2009-07-13 13:53:46 51°27.243 3°0.091 191 9.2 193 23.4
2009-07-13 13:54:45 51°27.076 2°59.99 202.1 12 203 25.1
2009-07-13 13:55:45 51°26.893 2°59.849 204.1 12.3 206 25.3
2009-07-13 13:56:46 51°26.705 2°59.709 202.6 12.4 204 25.7
2009-07-13 13:57:46 51°26.578 2°59.483 234.7 11.4 233 25.4
2009-07-13 13:58:45 51°26.487 2°59.326 223.4 5.7 225 25.6
2009-07-13 13:59:45 51°26.44 2°59.231 242.3 3.9 235 25.9
2009-07-13 14:00:46 51°26.388 2°59.148 218.7 4.2 219 25.7
2009-07-13 14:01:46 51°26.339 2°59.1 205.3 3 209 25.9
2009-07-13 14:02:45 51°26.301 2°59.071 196.3 2.3 201 25.8
2009-07-13 14:03:45 51°26.269 2°59.05 197 1.9 204 25.8
2009-07-13 14:04:46 51°26.241 2°59.031 200.2 2.1 202 26
2009-07-13 14:05:45 51°26.184 2°58.995 198.4 5.8 200 26.4
2009-07-13 14:06:45 51°26.049 2°58.932 194.3 10.6 197 26.4
2009-07-13 14:07:45 51°25.863 2°58.834 205.3 12.1 207 25.4
2009-07-13 14:08:46 51°25.695 2°58.643 219.2 12.2 219 24.9
2009-07-13 14:09:46 51°25.537 2°58.439 220 12.2 219 24.5
2009-07-13 14:10:45 51°25.38 2°58.24 219.7 12.2 218 23.9
2009-07-13 14:11:46 51°25.214 2°58.04 218.3 12.3 214 23.5
2009-07-13 14:12:46 51°25.043 2°57.861 213.5 12.3 211 22.6
2009-07-13 14:13:45 51°24.873 2°57.693 212.7 12.2 213 21.8
2009-07-13 14:14:45 51°24.699 2°57.527 214.1 12.1 212 20.8
2009-07-13 14:15:46 51°24.523 2°57.357 212.4 12.2 210 20
2009-07-13 14:16:46 51°24.349 2°57.196 213.8 12 210 19
2009-07-13 14:17:45 51°24.179 2°57.033 213 12.2 210 18.4
2009-07-13 14:18:45 51°24.005 2°56.866 213.8 12.1 210 17.4
2009-07-13 14:19:46 51°23.829 2°56.703 212.9 12 209 17
2009-07-13 14:20:46 51°23.659 2°56.54 213.3 11.7 209 20.4
2009-07-13 14:21:45 51°23.493 2°56.381 213.7 11.8 210 20.6
2009-07-13 14:22:46 51°23.319 2°56.218 212.8 12 208 21.1
2009-07-13 14:23:46 51°23.149 2°56.06 212.2 11.8 209 20.8
2009-07-13 14:24:46 51°22.98 2°55.902 213.9 11.8 212 20.6
2009-07-13 14:25:46 51°22.812 2°55.747 211 11.6 206 20.3
2009-07-13 14:26:46 51°22.643 2°55.605 208 11.5 207 20.2
2009-07-13 14:27:46 51°22.475 2°55.467 207.7 11.3 207 20.1
2009-07-13 14:28:46 51°22.307 2°55.332 208.3 11.2 206 20.7
2009-07-13 14:29:45 51°22.144 2°55.194 209.8 11.2 210 20.1
2009-07-13 14:30:45 51°21.979 2°55.046 209.9 11.4 209 19.6
2009-07-13 14:31:46 51°21.813 2°54.897 209.7 11.3 209 19.2
2009-07-13 14:32:46 51°21.648 2°54.752 209 11.2 204 19.3
2009-07-13 14:33:45 51°21.486 2°54.612 209.8 11.3 211 19
2009-07-13 14:34:45 51°21.318 2°54.482 204.4 11.2 203 19.1
2009-07-13 14:35:46 51°21.142 2°54.366 203.3 11.1 199 18.9
2009-07-13 14:36:46 51°20.97 2°54.253 203.2 11.1 202 18.8
2009-07-13 14:37:45 51°20.8 2°54.141 203.7 11.2 201 18.7
2009-07-13 14:38:45 51°20.628 2°54.026 205 11.2 203 18.5
2009-07-13 14:39:46 51°20.45 2°53.926 199 11.2 197 18.4
2009-07-13 14:40:45 51°20.274 2°53.839 199.5 11.2 198 18
2009-07-13 14:41:45 51°20.097 2°53.751 199.2 11 197 17.6
2009-07-13 14:42:45 51°19.918 2°53.664 198.6 11.2 196 16.9
2009-07-13 14:43:46 51°19.736 2°53.583 198.2 11.1 193 16.2
2009-07-13 14:44:45 51°19.561 2°53.502 198.1 11.2 195 15.6
2009-07-13 14:45:46 51°19.381 2°53.41 202.7 11.2 202 15.1
2009-07-13 14:46:46 51°19.208 2°53.298 205.7 11.1 200 14.9
2009-07-13 14:47:46 51°19.034 2°53.186 204.5 11.2 202 14.3
2009-07-13 14:48:46 51°18.862 2°53.072 204.7 11.2 202 14.2
2009-07-13 14:49:45 51°18.692 2°52.962 204 11.2 202 14
2009-07-13 14:50:45 51°18.52 2°52.85 205.6 11.2 201 14
2009-07-13 14:51:46 51°18.345 2°52.741 205 11.1 201 13.6
2009-07-13 14:52:46 51°18.176 2°52.629 206.8 11 203 13.4
2009-07-13 14:53:46 51°18.006 2°52.518 205.1 10.9 202 13.1
2009-07-13 14:54:46 51°17.831 2°52.43 201.6 11 199 13.1
2009-07-13 14:55:46 51°17.654 2°52.353 196.7 11 193 13
2009-07-13 14:56:46 51°17.471 2°52.312 188.1 11.2 183 13
2009-07-13 14:57:45 51°17.287 2°52.327 176.1 11.3 169 13
2009-07-13 14:58:46 51°17.1 2°52.406 164.8 11.6 159 12.5
2009-07-13 14:59:46 51°16.923 2°52.532 159.7 11.6 156 12.6
2009-07-13 15:00:46 51°16.747 2°52.665 160.7 11.7 156 12.4
2009-07-13 15:01:46 51°16.57 2°52.795 160.2 11.8 155 14.2
2009-07-13 15:02:46 51°16.392 2°52.922 161.5 11.5 156 14.7
2009-07-13 15:03:46 51°16.223 2°53.052 161 11.2 155 14.7
2009-07-13 15:04:45 51°16.055 2°53.172 161.4 11.3 155 14.7
2009-07-13 15:05:46 51°15.885 2°53.304 160.1 11.1 154 14.6
2009-07-13 15:06:46 51°15.717 2°53.439 159.8 11.2 154 13.9
2009-07-13 15:07:46 51°15.552 2°53.584 157.3 11.4 150 13.4
2009-07-13 15:08:46 51°15.389 2°53.737 155.2 11.4 148 12.8
2009-07-13 15:09:46 51°15.234 2°53.919 145.5 11.7 136 12.2
2009-07-13 15:10:46 51°15.095 2°54.129 144.6 11.4 138 11.7
2009-07-13 15:11:45 51°14.954 2°54.318 148.8 11.2 141 11.6
2009-07-13 15:12:46 51°14.804 2°54.501 150.9 11.2 144 12.6
2009-07-13 15:13:46 51°14.653 2°54.68 149.7 11.3 142 12.5
2009-07-13 15:14:46 51°14.511 2°54.874 145 10.9 135 13.1
2009-07-13 15:15:46 51°14.399 2°55.07 139.7 9.5 132 13.1
2009-07-13 15:16:46 51°14.29 2°55.232 139 8.6 137 13.7
2009-07-13 15:17:46 51°14.181 2°55.367 146 8.2 147 13.8
2009-07-13 15:18:45 51°14.063 2°55.461 155.4 8 156 13.8
2009-07-13 15:19:46 51°13.939 2°55.55 155.4 7.9 156 13.8
2009-07-13 15:20:45 51°13.828 2°55.629 154.7 7.1 154 14.1
2009-07-13 15:21:45 51°13.743 2°55.738 131.1 5.7 131 14.6
2009-07-13 15:22:46 51°13.694 2°55.842 120.7 4.1 122 11.7
2009-07-13 15:23:46 51°13.673 2°55.924 106.1 2.2 107 9.7
2009-07-13 15:24:46 51°13.664 2°55.957 117.7 0.5 120 8.7